Time;durP1;ratioP1;P1;durP2;ratioP2;P2;SDS_P1;SDS_P2;PMS_P1;PMS_P2;Temp;Humidity;BMP_temperature;BMP_pressure;BME280_temperature;BME280_humidity;BME280_pressure;Samples;Min_cycle;Max_cycle;Signal;HPM_P1;HPM_P2
2022/03/17 00:01:25;;;;;;;10.30;5.78;;;6.70;37.50;;;;;;4935364;29;20387;-83
2022/03/17 00:03:52;;;;;;;7.38;5.05;;;6.70;37.50;;;;;;4943880;29;20024;-83
2022/03/17 00:06:18;;;;;;;9.00;5.05;;;6.70;37.50;;;;;;4927919;29;20067;-81
2022/03/17 00:08:44;;;;;;;8.25;5.32;;;6.70;37.50;;;;;;4934673;29;20044;-83
2022/03/17 00:11:10;;;;;;;8.30;5.47;;;6.70;37.60;;;;;;4934330;29;20042;-83
2022/03/17 00:13:36;;;;;;;7.38;4.90;;;6.70;37.50;;;;;;4931164;29;20040;-81
2022/03/17 00:16:02;;;;;;;8.57;5.22;;;6.70;37.50;;;;;;4931581;29;20079;-85
2022/03/17 00:18:28;;;;;;;8.30;5.18;;;6.70;37.50;;;;;;4929495;29;20035;-83
2022/03/17 00:20:54;;;;;;;7.03;5.07;;;6.60;37.50;;;;;;4911752;29;20122;-82
2022/03/17 00:23:21;;;;;;;7.43;5.10;;;6.70;37.60;;;;;;4927844;29;20632;-84
2022/03/17 00:25:47;;;;;;;6.80;5.30;;;6.60;37.60;;;;;;4929493;29;20098;-82
2022/03/17 00:28:13;;;;;;;8.25;4.78;;;6.60;37.60;;;;;;4929209;29;21118;-83
2022/03/17 00:30:39;;;;;;;8.27;5.18;;;6.70;37.60;;;;;;4926576;29;20071;-85
2022/03/17 00:33:05;;;;;;;6.57;4.72;;;6.60;37.60;;;;;;4919118;29;20039;-84
2022/03/17 00:35:38;;;;;;;7.90;5.25;;;6.60;37.60;;;;;;4926953;29;20066;-82
2022/03/17 00:38:07;;;;;;;7.13;5.20;;;6.60;37.50;;;;;;4928189;29;20043;-85
2022/03/17 00:40:41;;;;;;;9.80;5.70;;;6.60;37.50;;;;;;4908194;29;20490;-84
2022/03/17 00:43:11;;;;;;;7.80;5.20;;;6.60;37.50;;;;;;4925911;29;20402;-84
2022/03/17 00:45:38;;;;;;;8.20;5.20;;;6.60;37.50;;;;;;4918973;29;20048;-81
2022/03/17 00:48:05;;;;;;;7.95;4.95;;;6.60;37.60;;;;;;4942960;29;20490;-83
2022/03/17 00:50:32;;;;;;;7.50;4.88;;;6.60;37.60;;;;;;4928615;29;20067;-83
2022/03/17 00:52:59;;;;;;;9.63;5.32;;;6.50;37.60;;;;;;4928819;29;20534;-84
2022/03/17 00:55:26;;;;;;;6.47;4.45;;;6.60;37.60;;;;;;4927257;29;20422;-83
2022/03/17 00:57:52;;;;;;;7.65;4.90;;;6.50;37.60;;;;;;4928767;29;20392;-82
2022/03/17 01:00:21;;;;;;;8.10;5.65;;;6.60;37.60;;;;;;4927177;29;20039;-81
2022/03/17 01:02:49;;;;;;;7.47;5.30;;;6.50;37.60;;;;;;4928713;29;20043;-82
2022/03/17 01:05:15;;;;;;;9.15;5.35;;;6.50;37.60;;;;;;4928319;29;20095;-83
2022/03/17 01:07:41;;;;;;;8.63;5.32;;;6.50;37.50;;;;;;4929238;29;20151;-83
2022/03/17 01:10:11;;;;;;;9.85;5.20;;;6.50;37.40;;;;;;4943478;29;20040;-82
2022/03/17 01:12:37;;;;;;;9.25;5.60;;;6.50;37.40;;;;;;4934303;29;20056;-81
2022/03/17 01:15:05;;;;;;;9.40;5.90;;;6.50;37.50;;;;;;4934359;29;20052;-84
2022/03/17 01:17:31;;;;;;;10.10;5.38;;;6.50;37.40;;;;;;4929992;28;20107;-81
2022/03/17 01:19:57;;;;;;;10.48;5.85;;;6.50;37.50;;;;;;4931240;29;20032;-84
2022/03/17 01:22:23;;;;;;;10.70;5.60;;;6.50;37.50;;;;;;4928352;29;20043;-83
2022/03/17 01:24:51;;;;;;;9.23;5.45;;;6.40;37.40;;;;;;4929767;29;20035;-84
2022/03/17 01:27:23;;;;;;;9.35;5.57;;;6.40;37.50;;;;;;4928152;29;20064;-83
2022/03/17 01:29:50;;;;;;;8.10;4.97;;;6.40;37.50;;;;;;4928698;29;20044;-85
2022/03/17 01:32:17;;;;;;;8.65;5.28;;;6.40;37.40;;;;;;4927976;29;20059;-83
2022/03/17 01:34:43;;;;;;;9.95;5.45;;;6.40;37.40;;;;;;4927192;29;20047;-83
2022/03/17 01:37:09;;;;;;;11.35;5.20;;;6.40;37.40;;;;;;4928650;29;20070;-81
2022/03/17 01:39:35;;;;;;;8.82;4.95;;;6.40;37.40;;;;;;4926737;29;20039;-82
2022/03/17 01:42:09;;;;;;;9.75;5.53;;;6.40;37.40;;;;;;4928550;28;20071;-81
2022/03/17 01:44:37;;;;;;;7.95;5.10;;;6.40;37.40;;;;;;4920831;29;20051;-82
2022/03/17 01:49:50;;;;;;;7.63;5.30;;;6.30;37.40;;;;;;4928677;28;20047;-83
2022/03/17 01:52:16;;;;;;;7.22;4.93;;;6.30;37.40;;;;;;4941910;28;20098;-82
2022/03/17 01:54:44;;;;;;;9.43;5.32;;;6.30;37.40;;;;;;4928402;29;20036;-83
2022/03/17 01:57:10;;;;;;;9.13;4.88;;;6.30;37.30;;;;;;4930279;28;20039;-79
2022/03/17 01:59:38;;;;;;;8.25;5.38;;;6.30;37.30;;;;;;4931668;28;20036;-84
2022/03/17 02:02:10;;;;;;;7.75;5.05;;;6.30;37.30;;;;;;4913852;29;20040;-84
2022/03/17 02:04:37;;;;;;;7.80;5.10;;;6.30;37.30;;;;;;4931106;28;20054;-83
2022/03/17 02:07:05;;;;;;;8.15;5.10;;;6.30;37.30;;;;;;4930624;29;20035;-81
2022/03/17 02:09:31;;;;;;;8.40;4.93;;;6.20;37.30;;;;;;4945609;28;20048;-78
2022/03/17 02:14:48;;;;;;;8.70;4.95;;;6.30;37.30;;;;;;4932861;29;20506;-83
2022/03/17 02:17:14;;;;;;;8.25;5.53;;;6.20;37.30;;;;;;4934658;29;20040;-81
2022/03/17 02:19:40;;;;;;;7.45;4.90;;;6.20;37.20;;;;;;4933495;29;20035;-84
2022/03/17 02:22:10;;;;;;;9.00;5.05;;;6.20;37.20;;;;;;4934416;29;20045;-81
2022/03/17 02:27:21;;;;;;;7.68;4.93;;;6.20;37.30;;;;;;4935676;29;20047;-85
2022/03/17 02:29:47;;;;;;;6.90;4.97;;;6.20;37.30;;;;;;4931147;29;20051;-84
2022/03/17 02:32:14;;;;;;;10.48;5.20;;;6.20;37.30;;;;;;4929383;29;20110;-81
2022/03/17 02:34:40;;;;;;;9.00;4.57;;;6.20;37.30;;;;;;4930954;29;20051;-81
2022/03/17 02:37:06;;;;;;;7.28;5.13;;;6.10;37.30;;;;;;4930908;29;20475;-80
2022/03/17 02:39:32;;;;;;;8.05;5.07;;;6.10;37.30;;;;;;4929812;29;20059;-79
2022/03/17 02:42:00;;;;;;;7.68;4.90;;;6.10;37.40;;;;;;4931242;29;20036;-82
2022/03/17 02:44:26;;;;;;;8.65;4.80;;;6.10;37.30;;;;;;4931536;29;20036;-82
2022/03/17 02:46:51;;;;;;;8.20;5.18;;;6.10;37.40;;;;;;4929545;29;20410;-81
2022/03/17 02:49:18;;;;;;;9.50;5.78;;;6.10;37.40;;;;;;4930901;29;20119;-82
2022/03/17 02:51:46;;;;;;;7.68;4.90;;;6.10;37.40;;;;;;4930186;29;20050;-81
2022/03/17 02:54:12;;;;;;;8.38;5.05;;;6.20;37.50;;;;;;4930314;29;20038;-82
2022/03/17 02:56:38;;;;;;;9.30;5.22;;;6.20;37.50;;;;;;4930892;29;20035;-82
2022/03/17 02:59:04;;;;;;;8.23;4.80;;;6.20;37.40;;;;;;4929919;29;20063;-82
2022/03/17 03:01:29;;;;;;;8.13;4.90;;;6.20;37.40;;;;;;4930765;29;20130;-81
2022/03/17 03:03:55;;;;;;;8.95;5.40;;;6.30;37.40;;;;;;4945404;29;20035;-81
2022/03/17 03:06:22;;;;;;;7.63;5.07;;;6.30;37.30;;;;;;4927260;29;20051;-80
2022/03/17 03:08:48;;;;;;;11.43;5.20;;;6.30;37.30;;;;;;4927907;29;20044;-81
2022/03/17 03:11:14;;;;;;;9.02;5.28;;;6.30;37.20;;;;;;4928617;29;20402;-81
2022/03/17 03:13:40;;;;;;;10.25;5.63;;;6.30;37.10;;;;;;4928706;29;20036;-82
2022/03/17 03:16:06;;;;;;;11.80;6.13;;;6.30;37.00;;;;;;4931435;29;20607;-81
2022/03/17 03:18:32;;;;;;;9.40;5.95;;;6.30;37.10;;;;;;4944851;29;20040;-82
2022/03/17 03:20:58;;;;;;;11.40;5.32;;;6.30;37.00;;;;;;4930063;29;20490;-81
2022/03/17 03:23:24;;;;;;;9.90;5.97;;;6.30;37.00;;;;;;4930542;28;20039;-81
2022/03/17 03:25:50;;;;;;;8.77;5.40;;;6.30;37.00;;;;;;4939184;29;20047;-79
2022/03/17 03:28:16;;;;;;;11.77;5.60;;;6.30;37.00;;;;;;4923133;28;20028;-81
2022/03/17 03:30:42;;;;;;;8.85;5.20;;;6.30;37.00;;;;;;4918736;29;20059;-78
2022/03/17 03:33:08;;;;;;;11.57;5.70;;;6.30;37.00;;;;;;4896684;29;20522;-85
2022/03/17 03:38:22;;;;;;;10.43;6.10;;;6.20;37.20;;;;;;4928702;28;20039;-79
2022/03/17 03:40:48;;;;;;;10.82;5.57;;;6.20;37.30;;;;;;4930108;29;20126;-78
2022/03/17 03:43:14;;;;;;;10.02;6.15;;;6.30;37.30;;;;;;4929320;29;20150;-79
2022/03/17 03:45:39;;;;;;;9.10;5.88;;;6.20;37.30;;;;;;4928517;29;20370;-78
2022/03/17 03:48:05;;;;;;;9.68;5.55;;;6.20;37.30;;;;;;4928204;29;20399;-84
2022/03/17 03:50:31;;;;;;;10.63;6.22;;;6.20;37.30;;;;;;4929161;29;20425;-82
2022/03/17 03:52:58;;;;;;;12.45;5.40;;;6.20;37.30;;;;;;4927501;29;20507;-83
2022/03/17 03:55:24;;;;;;;8.00;5.68;;;6.20;37.40;;;;;;4911733;29;20040;-82
2022/03/17 03:57:51;;;;;;;9.10;5.88;;;6.20;37.40;;;;;;4909960;29;20031;-84
2022/03/17 04:00:24;;;;;;;11.02;5.25;;;6.20;37.50;;;;;;4927200;29;20120;-84
2022/03/17 04:02:51;;;;;;;8.68;5.55;;;6.20;37.40;;;;;;4934916;29;20075;-84
2022/03/17 04:05:19;;;;;;;10.05;5.32;;;6.20;37.40;;;;;;4897164;29;20043;-84
2022/03/17 04:07:45;;;;;;;10.93;5.25;;;6.20;37.40;;;;;;4928057;29;20122;-83
2022/03/17 04:10:11;;;;;;;9.48;5.68;;;6.20;37.40;;;;;;4929241;29;20062;-83
2022/03/17 04:12:37;;;;;;;11.57;5.53;;;6.20;37.60;;;;;;4922221;29;20410;-83
2022/03/17 04:15:04;;;;;;;8.10;5.40;;;6.20;37.70;;;;;;4912084;29;20131;-84
2022/03/17 04:17:30;;;;;;;9.18;5.20;;;6.20;38.30;;;;;;4928382;29;20380;-86
2022/03/17 04:19:55;;;;;;;12.43;6.22;;;6.20;37.70;;;;;;4926997;29;20035;-84
2022/03/17 04:22:21;;;;;;;10.88;5.53;;;6.20;37.60;;;;;;4927247;28;20114;-85
2022/03/17 04:24:47;;;;;;;9.27;5.47;;;6.20;37.60;;;;;;4935746;29;20039;-86
2022/03/17 04:27:13;;;;;;;11.90;5.65;;;6.20;37.60;;;;;;4938408;29;20046;-82
2022/03/17 04:29:40;;;;;;;9.77;5.50;;;6.20;37.70;;;;;;4933976;28;20036;-83
2022/03/17 04:32:07;;;;;;;9.60;5.78;;;6.20;37.70;;;;;;4924355;29;20063;-83
2022/03/17 04:34:33;;;;;;;9.52;5.40;;;6.20;37.70;;;;;;4927136;29;20414;-82
2022/03/17 04:36:59;;;;;;;8.43;5.43;;;6.20;37.80;;;;;;4928096;29;20050;-85
2022/03/17 04:39:26;;;;;;;10.40;5.35;;;6.20;37.70;;;;;;4930723;29;20035;-94
2022/03/17 04:41:52;;;;;;;15.93;5.45;;;6.20;37.80;;;;;;4927473;29;20032;-87
2022/03/17 04:44:18;;;;;;;16.65;5.97;;;6.20;37.80;;;;;;4926419;29;20110;-90
2022/03/17 04:46:46;;;;;;;9.50;5.20;;;6.20;37.80;;;;;;4908386;29;20059;-82
2022/03/17 04:49:12;;;;;;;11.48;5.13;;;6.20;37.70;;;;;;4927894;28;20119;-80
2022/03/17 04:51:38;;;;;;;12.63;5.35;;;6.20;37.70;;;;;;4926443;29;20035;-82
2022/03/17 04:54:06;;;;;;;9.30;5.15;;;6.20;37.70;;;;;;4911600;29;20091;-80
2022/03/17 04:56:32;;;;;;;9.85;5.45;;;6.20;37.70;;;;;;4942682;28;20040;-80
2022/03/17 04:58:58;;;;;;;8.63;5.43;;;6.20;37.70;;;;;;4928976;29;20414;-82
2022/03/17 05:01:24;;;;;;;13.50;5.38;;;6.20;37.60;;;;;;4926124;29;20032;-81
2022/03/17 05:03:50;;;;;;;14.93;5.72;;;6.20;37.60;;;;;;4929043;29;20034;-81
2022/03/17 05:06:16;;;;;;;11.52;4.78;;;6.20;37.60;;;;;;4928843;29;20044;-81
2022/03/17 05:08:43;;;;;;;13.23;5.35;;;6.20;37.50;;;;;;4927391;29;20040;-79
2022/03/17 05:11:09;;;;;;;8.68;5.18;;;6.30;37.60;;;;;;4911055;29;20036;-81
2022/03/17 05:13:37;;;;;;;11.35;5.00;;;6.30;37.50;;;;;;4927858;29;20065;-82
2022/03/17 05:16:04;;;;;;;11.32;5.40;;;6.30;37.60;;;;;;4929380;29;20043;-81
2022/03/17 05:18:31;;;;;;;7.82;5.45;;;6.30;37.40;;;;;;4926806;29;20043;-81
2022/03/17 05:20:57;;;;;;;9.20;5.00;;;6.30;37.30;;;;;;4928594;29;20051;-83
2022/03/17 05:23:23;;;;;;;13.05;5.85;;;6.30;37.30;;;;;;4929126;29;20484;-83
2022/03/17 05:25:50;;;;;;;9.13;4.90;;;6.30;37.20;;;;;;4913672;29;20047;-87
2022/03/17 05:28:17;;;;;;;14.88;5.15;;;6.30;37.20;;;;;;4934996;29;20011;-84
2022/03/17 05:30:43;;;;;;;12.65;5.25;;;6.30;38.20;;;;;;4952603;29;20069;-83
2022/03/17 05:33:11;;;;;;;9.02;4.80;;;6.30;39.60;;;;;;4950052;29;20043;-84
2022/03/17 05:35:38;;;;;;;10.38;5.20;;;6.30;40.90;;;;;;4946685;29;20094;-83
2022/03/17 05:38:05;;;;;;;11.85;5.40;;;6.40;42.10;;;;;;4930951;29;20043;-83
2022/03/17 05:40:31;;;;;;;13.82;5.25;;;6.40;42.80;;;;;;4931725;28;20050;-82
2022/03/17 05:42:59;;;;;;;10.70;5.45;;;6.60;43.30;;;;;;4930433;29;20063;-84
2022/03/17 05:45:26;;;;;;;12.25;4.97;;;6.70;43.60;;;;;;4923466;29;20570;-85
2022/03/17 05:47:55;;;;;;;12.15;5.18;;;6.80;43.70;;;;;;4916663;29;20399;-84
2022/03/17 05:50:24;;;;;;;8.85;5.25;;;7.00;43.70;;;;;;4924127;29;20546;-84
2022/03/17 05:52:51;;;;;;;11.98;4.93;;;7.10;43.70;;;;;;4931185;29;20047;-84
2022/03/17 05:55:19;;;;;;;9.95;5.03;;;7.30;43.90;;;;;;4931376;28;20055;-85
2022/03/17 05:57:48;;;;;;;11.77;5.15;;;7.40;44.00;;;;;;4929549;29;20064;-85
2022/03/17 06:00:17;;;;;;;9.05;5.50;;;7.50;44.00;;;;;;4929261;29;20043;-84
2022/03/17 06:02:43;;;;;;;9.38;4.35;;;7.60;43.90;;;;;;4945268;28;20058;-86
2022/03/17 06:05:11;;;;;;;8.45;5.03;;;7.80;43.90;;;;;;4931094;29;20074;-85
2022/03/17 06:07:42;;;;;;;9.95;4.70;;;7.90;43.80;;;;;;4930747;28;20047;-86
2022/03/17 06:10:10;;;;;;;9.73;4.55;;;8.00;43.80;;;;;;4930108;29;20039;-86
2022/03/17 06:12:38;;;;;;;6.78;4.00;;;8.10;43.60;;;;;;4913965;29;20052;-88
2022/03/17 06:15:07;;;;;;;10.65;4.22;;;8.20;43.60;;;;;;4944565;28;20051;-84
2022/03/17 06:17:54;;;;;;;11.05;4.32;;;8.30;43.60;;;;;;4921970;29;20040;-83
2022/03/17 06:20:27;;;;;;;7.53;4.22;;;8.40;43.60;;;;;;4931323;28;20139;-84
2022/03/17 06:22:55;;;;;;;13.52;4.85;;;8.60;43.70;;;;;;4924760;29;20462;-81
2022/03/17 06:25:23;;;;;;;12.57;5.03;;;8.70;44.00;;;;;;4914015;28;20028;-81
2022/03/17 06:27:50;;;;;;;10.25;5.45;;;8.70;42.20;;;;;;4945464;29;20386;-81
2022/03/17 06:30:18;;;;;;;9.15;5.00;;;8.80;40.40;;;;;;4928007;29;20036;-80
2022/03/17 06:32:45;;;;;;;12.38;4.82;;;8.80;38.90;;;;;;4931426;29;20554;-80
2022/03/17 06:35:17;;;;;;;12.35;4.78;;;8.80;37.80;;;;;;4931718;29;20066;-81
2022/03/17 06:37:53;;;;;;;13.75;5.15;;;8.90;37.00;;;;;;4930923;28;20046;-82
2022/03/17 06:40:20;;;;;;;13.40;4.90;;;8.90;36.50;;;;;;4945885;29;20073;-81
2022/03/17 06:42:47;;;;;;;15.13;5.35;;;9.00;36.30;;;;;;4931973;29;20534;-81
2022/03/17 06:45:14;;;;;;;11.30;4.90;;;9.00;35.70;;;;;;4930241;29;20071;-80
2022/03/17 06:47:41;;;;;;;7.30;4.45;;;9.00;34.90;;;;;;4926883;29;20043;-81
2022/03/17 06:50:09;;;;;;;7.32;4.18;;;9.00;34.70;;;;;;4929958;29;20051;-81
2022/03/17 06:52:35;;;;;;;9.52;4.35;;;9.10;34.40;;;;;;4936675;29;20052;-81
2022/03/17 06:55:02;;;;;;;13.23;4.45;;;9.00;34.20;;;;;;4930062;29;20044;-81
2022/03/17 06:57:28;;;;;;;12.43;5.07;;;9.10;34.20;;;;;;4927147;29;20039;-81
2022/03/17 06:59:53;;;;;;;7.22;4.10;;;9.00;34.00;;;;;;4930368;29;20042;-81
2022/03/17 07:02:19;;;;;;;12.30;4.45;;;9.10;33.80;;;;;;4930203;29;20490;-81
2022/03/17 07:04:46;;;;;;;14.98;4.50;;;9.10;33.60;;;;;;4930510;29;20046;-81
2022/03/17 07:07:13;;;;;;;9.52;4.55;;;9.10;33.40;;;;;;4931910;29;20072;-81
2022/03/17 07:09:41;;;;;;;13.07;4.43;;;9.10;33.20;;;;;;4921876;29;20497;-81
2022/03/17 07:12:08;;;;;;;8.38;4.50;;;9.10;33.20;;;;;;4910322;29;20075;-80
2022/03/17 07:14:34;;;;;;;10.70;4.53;;;9.10;33.00;;;;;;4930573;29;20039;-81
2022/03/17 07:17:00;;;;;;;12.50;4.90;;;9.10;32.70;;;;;;4929517;29;20036;-81
2022/03/17 07:19:26;;;;;;;13.18;4.40;;;9.10;32.50;;;;;;4930958;29;20062;-81
2022/03/17 07:21:53;;;;;;;10.50;4.70;;;9.10;32.40;;;;;;4930348;29;20050;-80
2022/03/17 07:24:19;;;;;;;8.93;4.28;;;9.10;32.40;;;;;;4928368;29;20050;-81
2022/03/17 07:26:45;;;;;;;11.45;4.90;;;9.20;32.40;;;;;;4925860;29;20059;-80
2022/03/17 07:29:11;;;;;;;7.97;3.90;;;9.20;32.30;;;;;;4930869;29;20044;-80
2022/03/17 07:31:38;;;;;;;9.40;4.55;;;9.20;32.10;;;;;;4929353;29;20047;-80
2022/03/17 07:34:04;;;;;;;15.10;4.40;;;9.20;32.10;;;;;;4896055;29;20047;-81
2022/03/17 07:36:30;;;;;;;9.43;3.90;;;9.20;32.10;;;;;;4927709;29;20361;-82
2022/03/17 07:38:57;;;;;;;7.57;3.40;;;9.30;32.10;;;;;;4930877;28;20038;-81
2022/03/17 07:41:24;;;;;;;13.55;4.03;;;9.30;32.00;;;;;;4931631;29;20118;-81
2022/03/17 07:43:51;;;;;;;8.65;3.67;;;9.20;31.90;;;;;;4927091;29;20052;-81
2022/03/17 07:46:32;;;;;;;12.50;3.78;;;9.20;32.00;;;;;;4927409;29;20047;-81
2022/03/17 07:49:19;;;;;;;11.32;3.38;;;9.20;31.90;;;;;;4927160;29;20047;-81
2022/03/17 07:51:46;;;;;;;8.75;3.20;;;9.20;31.70;;;;;;4913621;29;20039;-82
2022/03/17 07:54:13;;;;;;;5.63;3.25;;;9.20;31.60;;;;;;4928995;28;21005;-81
2022/03/17 07:56:40;;;;;;;8.95;3.65;;;9.20;31.50;;;;;;4929905;29;20036;-81
2022/03/17 07:59:07;;;;;;;6.13;2.90;;;9.30;31.10;;;;;;4911610;29;20040;-82
2022/03/17 08:01:34;;;;;;;6.03;3.33;;;9.30;31.20;;;;;;4927075;29;20028;-81
2022/03/17 08:04:00;;;;;;;5.43;2.75;;;9.30;31.20;;;;;;4912010;29;20513;-83
2022/03/17 08:06:26;;;;;;;6.93;2.92;;;9.30;31.10;;;;;;4927742;29;20127;-82
2022/03/17 08:08:53;;;;;;;7.32;3.13;;;9.30;31.20;;;;;;4943581;29;20046;-81
2022/03/17 08:11:19;;;;;;;6.85;3.28;;;9.30;31.30;;;;;;4926465;29;20566;-82
2022/03/17 08:13:45;;;;;;;11.90;3.80;;;9.30;31.30;;;;;;4925345;29;20042;-79
2022/03/17 08:16:12;;;;;;;8.13;2.75;;;9.40;33.40;;;;;;4928017;29;20031;-78
2022/03/17 08:18:38;;;;;;;8.13;3.00;;;9.50;36.60;;;;;;4926764;29;20051;-80
2022/03/17 08:21:05;;;;;;;7.32;2.80;;;9.60;38.00;;;;;;4925295;29;20066;-80
2022/03/17 08:23:32;;;;;;;8.93;2.53;;;9.70;38.60;;;;;;4943333;29;20035;-80
2022/03/17 08:25:58;;;;;;;5.55;2.38;;;9.80;38.80;;;;;;4928500;29;20507;-79
2022/03/17 08:28:24;;;;;;;5.88;2.30;;;9.80;39.00;;;;;;4924881;29;20038;-79
2022/03/17 08:30:51;;;;;;;4.07;2.15;;;9.90;39.30;;;;;;4929222;29;20586;-80
2022/03/17 08:33:17;;;;;;;5.03;2.55;;;9.90;39.40;;;;;;4924771;29;20039;-81
2022/03/17 08:35:45;;;;;;;3.30;1.95;;;10.00;39.60;;;;;;4910336;29;20514;-82
2022/03/17 08:38:11;;;;;;;4.28;2.10;;;10.00;40.30;;;;;;4910820;29;20067;-80
2022/03/17 08:40:40;;;;;;;4.53;1.95;;;10.00;39.80;;;;;;4926799;29;20086;-80
2022/03/17 08:43:08;;;;;;;4.93;2.10;;;10.10;39.90;;;;;;4910671;29;20479;-80
2022/03/17 08:51:04;;;;;;;4.18;2.25;;;10.20;40.10;;;;;;4925799;29;20574;-80
2022/03/17 08:53:30;;;;;;;4.05;2.10;;;10.20;40.30;;;;;;4926970;29;20074;-81
2022/03/17 08:55:57;;;;;;;4.18;2.40;;;10.30;40.50;;;;;;4926972;29;20048;-80
2022/03/17 08:58:24;;;;;;;4.50;2.70;;;10.30;40.60;;;;;;4926804;29;20458;-81
2022/03/17 09:00:50;;;;;;;4.78;2.92;;;10.30;40.60;;;;;;4911790;29;20032;-80
2022/03/17 09:03:16;;;;;;;2.95;1.90;;;10.30;40.70;;;;;;4925062;29;20039;-80
2022/03/17 09:05:42;;;;;;;4.55;2.30;;;10.40;40.90;;;;;;4913599;29;20071;-80
2022/03/17 09:08:08;;;;;;;5.22;2.63;;;10.40;40.90;;;;;;4930479;29;20063;-80
2022/03/17 09:10:36;;;;;;;5.40;2.95;;;10.40;41.00;;;;;;4929635;29;20063;-80
2022/03/17 09:13:08;;;;;;;6.05;2.70;;;10.40;41.00;;;;;;4929991;29;20098;-80
2022/03/17 09:15:36;;;;;;;3.53;2.30;;;10.40;41.10;;;;;;4931757;29;20035;-80
2022/03/17 09:18:03;;;;;;;3.50;2.22;;;10.40;41.10;;;;;;4930373;29;20034;-80
2022/03/17 09:20:29;;;;;;;5.25;3.00;;;10.40;41.20;;;;;;4926678;29;20036;-80
2022/03/17 09:22:56;;;;;;;3.83;2.53;;;10.40;41.20;;;;;;4930667;29;20036;-80
2022/03/17 09:25:25;;;;;;;3.47;2.50;;;10.50;41.30;;;;;;4930455;29;20031;-79
2022/03/17 09:27:51;;;;;;;3.85;2.53;;;10.50;41.30;;;;;;4946265;29;20127;-80
2022/03/17 09:30:17;;;;;;;4.30;2.88;;;10.50;41.40;;;;;;4931699;29;20268;-80
2022/03/17 09:32:45;;;;;;;3.25;2.40;;;10.50;41.40;;;;;;4929651;29;20032;-80
2022/03/17 09:35:12;;;;;;;4.07;2.60;;;10.50;41.70;;;;;;4946153;29;20063;-80
2022/03/17 09:37:39;;;;;;;4.45;2.92;;;10.50;41.40;;;;;;4914023;29;20106;-80
2022/03/17 09:40:09;;;;;;;2.90;2.25;;;10.50;41.40;;;;;;4930439;29;20042;-80
2022/03/17 09:42:37;;;;;;;3.58;2.67;;;10.50;41.40;;;;;;4930577;29;20678;-79
2022/03/17 09:45:03;;;;;;;3.88;2.63;;;10.50;41.40;;;;;;4933075;29;20040;-79
2022/03/17 09:47:34;;;;;;;5.47;2.60;;;10.50;41.30;;;;;;4929417;29;20435;-79
2022/03/17 09:50:01;;;;;;;4.43;2.20;;;10.60;41.40;;;;;;4913903;29;20106;-80
2022/03/17 09:52:29;;;;;;;3.55;2.40;;;10.50;41.30;;;;;;4932566;28;20122;-80
2022/03/17 09:54:55;;;;;;;4.60;2.63;;;10.50;41.10;;;;;;4932311;29;20034;-80
2022/03/17 09:57:21;;;;;;;2.85;2.40;;;10.60;41.30;;;;;;4932551;29;20039;-80
2022/03/17 10:11:32;;;;;;;4.43;2.55;;;10.60;40.80;;;;;;5036315;27;20834;-79
2022/03/17 10:14:00;;;;;;;4.68;2.40;;;10.60;41.50;;;;;;5028417;28;21237;-79
2022/03/17 10:16:27;;;;;;;4.03;2.30;;;10.70;41.20;;;;;;5026222;28;20061;-79
2022/03/17 10:19:00;;;;;;;3.38;2.20;;;10.80;41.00;;;;;;5003135;28;20032;-79
2022/03/17 10:21:28;;;;;;;6.78;2.78;;;10.80;40.90;;;;;;4996082;28;20040;-82
2022/03/17 10:24:04;;;;;;;3.35;2.20;;;10.80;40.70;;;;;;5012383;28;20164;-80
2022/03/17 10:26:39;;;;;;;4.97;2.60;;;10.80;40.70;;;;;;5017059;28;20025;-82
2022/03/17 10:29:19;;;;;;;4.30;2.20;;;10.80;40.70;;;;;;5044236;28;21767;-80
2022/03/17 10:32:04;;;;;;;4.80;2.67;;;10.80;40.60;;;;;;4995488;28;20859;-80
2022/03/17 10:34:51;;;;;;;4.25;2.30;;;10.80;40.60;;;;;;5026192;28;20046;-82
2022/03/17 10:37:19;;;;;;;3.42;2.17;;;10.80;40.70;;;;;;5010478;28;20046;-80
2022/03/17 10:39:47;;;;;;;11.20;3.15;;;10.80;40.70;;;;;;5010481;28;20038;-78
2022/03/17 10:42:21;;;;;;;4.43;2.40;;;10.80;40.70;;;;;;5044708;28;20515;-80
2022/03/17 10:44:58;;;;;;;3.37;2.20;;;10.80;40.80;;;;;;5011358;28;20129;-79
2022/03/17 10:47:31;;;;;;;4.20;2.45;;;10.80;40.90;;;;;;5012680;28;20046;-80
2022/03/17 10:50:03;;;;;;;5.55;2.35;;;10.80;40.90;;;;;;5009077;28;20040;-80
2022/03/17 10:52:53;;;;;;;4.25;2.50;;;10.80;40.90;;;;;;5010880;28;20071;-78
2022/03/17 10:55:39;;;;;;;2.53;2.20;;;10.70;40.90;;;;;;5008392;28;20519;-80
2022/03/17 10:58:18;;;;;;;3.55;2.42;;;10.70;40.90;;;;;;4993306;28;20156;-80
2022/03/17 11:00:52;;;;;;;3.85;2.50;;;10.80;40.90;;;;;;5011129;28;20119;-80
2022/03/17 11:03:20;;;;;;;3.13;1.90;;;10.80;40.80;;;;;;5010723;28;20041;-82
2022/03/17 11:05:51;;;;;;;5.15;2.33;;;10.80;40.60;;;;;;4993291;28;20121;-82
2022/03/17 11:08:21;;;;;;;5.18;2.25;;;10.80;40.60;;;;;;4993895;28;20035;-81
2022/03/17 11:10:49;;;;;;;5.50;2.30;;;10.80;40.50;;;;;;5006076;28;20042;-79
2022/03/17 11:13:15;;;;;;;5.25;2.28;;;10.80;40.50;;;;;;4981324;28;20037;-81
2022/03/17 11:15:48;;;;;;;5.40;2.20;;;10.80;40.50;;;;;;4996767;28;20033;-81
2022/03/17 11:18:17;;;;;;;4.05;2.10;;;10.80;40.50;;;;;;4997947;28;20034;-82
2022/03/17 11:20:44;;;;;;;3.65;2.33;;;10.80;40.50;;;;;;4998119;28;20042;-81
2022/03/17 11:23:30;;;;;;;3.92;2.15;;;10.80;40.50;;;;;;4997242;28;20406;-79
2022/03/17 11:25:59;;;;;;;5.28;2.17;;;10.80;40.50;;;;;;4996423;28;20528;-82
2022/03/17 11:28:39;;;;;;;5.55;2.60;;;10.80;40.50;;;;;;4997830;28;20464;-82
2022/03/17 11:31:08;;;;;;;3.35;2.10;;;10.90;40.70;;;;;;4980210;28;20044;-79
2022/03/17 11:33:41;;;;;;;3.63;2.10;;;10.80;40.60;;;;;;4998536;28;20440;-81
2022/03/17 11:36:10;;;;;;;2.50;1.80;;;10.90;40.70;;;;;;4978688;28;20046;-80
2022/03/17 11:38:38;;;;;;;4.10;2.45;;;10.90;40.70;;;;;;4998960;28;20057;-81
2022/03/17 11:41:10;;;;;;;3.13;2.25;;;10.90;40.60;;;;;;5029159;28;20124;-80
2022/03/17 11:43:41;;;;;;;5.55;2.30;;;10.90;40.50;;;;;;4998801;28;20112;-81
2022/03/17 11:46:17;;;;;;;3.00;2.08;;;10.90;40.60;;;;;;4996784;28;20072;-80
2022/03/17 11:48:45;;;;;;;4.20;2.33;;;10.90;40.50;;;;;;4980860;28;20034;-80
2022/03/17 11:51:13;;;;;;;2.70;2.00;;;10.90;40.50;;;;;;4976416;28;20105;-79
2022/03/17 11:53:39;;;;;;;3.38;2.05;;;10.90;40.50;;;;;;5002686;28;20042;-81
2022/03/17 11:56:07;;;;;;;4.90;1.95;;;10.90;40.30;;;;;;4976159;28;20436;-79
2022/03/17 11:58:52;;;;;;;3.40;2.15;;;10.90;40.40;;;;;;4992716;28;20056;-80
2022/03/17 12:01:25;;;;;;;3.83;2.40;;;10.90;40.50;;;;;;4997390;28;20420;-80
2022/03/17 12:04:00;;;;;;;4.13;2.30;;;10.90;40.40;;;;;;5013125;28;20048;-81
2022/03/17 12:06:33;;;;;;;3.55;2.22;;;10.90;40.30;;;;;;4996325;28;20093;-81
2022/03/17 12:09:11;;;;;;;5.50;1.90;;;10.90;40.50;;;;;;4996009;28;20034;-81
2022/03/17 12:11:43;;;;;;;2.55;2.28;;;10.90;40.40;;;;;;4996688;28;20067;-80
2022/03/17 12:14:22;;;;;;;4.38;2.20;;;10.90;40.50;;;;;;5005828;28;20524;-83
2022/03/17 12:17:21;;;;;;;2.70;2.17;;;10.90;40.40;;;;;;5010944;28;20038;-83
2022/03/17 12:20:02;;;;;;;2.75;1.92;;;10.90;40.10;;;;;;4997363;28;20038;-82
2022/03/17 12:22:31;;;;;;;2.75;2.00;;;10.90;39.90;;;;;;4988561;28;20034;-82
2022/03/17 12:25:02;;;;;;;3.63;1.83;;;10.90;39.90;;;;;;4991398;28;20030;-80
2022/03/17 12:27:36;;;;;;;2.75;2.17;;;10.90;39.90;;;;;;4994538;28;20030;-81
2022/03/17 12:30:06;;;;;;;5.28;2.38;;;10.90;39.80;;;;;;4988482;28;20105;-82
2022/03/17 12:32:40;;;;;;;5.30;1.85;;;10.90;39.80;;;;;;4976658;28;20261;-81
2022/03/17 12:35:10;;;;;;;3.95;2.17;;;10.90;39.90;;;;;;4994747;28;20034;-80
2022/03/17 12:37:37;;;;;;;3.30;2.20;;;10.90;39.90;;;;;;5013434;28;20034;-79
2022/03/17 12:40:11;;;;;;;3.15;2.10;;;10.90;40.00;;;;;;4993612;28;20041;-80
2022/03/17 12:42:43;;;;;;;3.67;2.30;;;10.90;39.90;;;;;;5027140;28;20464;-81
2022/03/17 12:45:12;;;;;;;5.35;2.53;;;10.90;39.70;;;;;;5013752;28;20030;-81
2022/03/17 12:47:41;;;;;;;3.75;2.38;;;10.90;39.60;;;;;;5008778;28;20034;-82
2022/03/17 12:50:13;;;;;;;4.50;2.35;;;10.90;39.70;;;;;;4976686;28;20026;-80
2022/03/17 12:52:41;;;;;;;3.65;2.25;;;10.90;39.80;;;;;;5005537;28;20038;-80
2022/03/17 12:55:12;;;;;;;4.07;2.30;;;10.90;39.90;;;;;;5012164;28;20061;-81
2022/03/17 12:57:39;;;;;;;5.30;2.33;;;11.00;39.80;;;;;;5017102;28;20095;-81
2022/03/17 13:00:06;;;;;;;5.88;2.40;;;10.90;39.90;;;;;;5013826;28;20120;-80
2022/03/17 13:02:32;;;;;;;5.38;2.58;;;11.00;39.90;;;;;;5015584;28;20124;-81
2022/03/17 13:07:50;;;;;;;5.97;2.55;;;10.90;39.80;;;;;;4992113;28;20058;-81
2022/03/17 13:10:26;;;;;;;3.78;2.40;;;11.00;39.80;;;;;;4991504;28;20084;-80
2022/03/17 13:15:37;;;;;;;4.55;2.60;;;11.00;39.80;;;;;;4993525;28;20041;-79
2022/03/17 13:18:05;;;;;;;5.22;2.50;;;11.00;39.80;;;;;;4991197;28;20073;-80
2022/03/17 13:20:31;;;;;;;5.53;2.55;;;11.00;39.80;;;;;;4966269;28;20257;-79
2022/03/17 13:23:15;;;;;;;3.80;2.70;;;11.00;39.70;;;;;;4976447;28;20626;-80
2022/03/17 13:25:41;;;;;;;4.72;2.75;;;11.00;39.70;;;;;;4975876;28;20515;-80
2022/03/17 13:28:10;;;;;;;6.53;2.67;;;11.00;39.70;;;;;;4991125;28;20063;-79
2022/03/17 13:30:42;;;;;;;3.92;2.55;;;11.00;39.60;;;;;;4974324;28;20022;-81